sensor_id;sensor_type;location;lat;lon;timestamp;pressure;altitude;pressure_sealevel;temperature;humidity
65872;BME280;52653;50.080;21.992;2023-05-14T00:00:01;99766.70;;;6.34;81.74
65872;BME280;52653;50.080;21.992;2023-05-14T00:02:56;99763.86;;;6.31;81.69
65872;BME280;52653;50.080;21.992;2023-05-14T00:05:29;99767.30;;;6.29;81.55
65872;BME280;52653;50.080;21.992;2023-05-14T00:08:02;99765.35;;;6.26;81.60
65872;BME280;52653;50.080;21.992;2023-05-14T00:10:44;99762.52;;;6.24;81.56
65872;BME280;52653;50.080;21.992;2023-05-14T00:13:19;99761.92;;;6.21;81.89
65872;BME280;52653;50.080;21.992;2023-05-14T00:15:55;99761.70;;;6.18;81.89
65872;BME280;52653;50.080;21.992;2023-05-14T00:18:34;99756.95;;;6.14;81.77
65872;BME280;52653;50.080;21.992;2023-05-14T00:21:06;99757.23;;;6.11;81.89
65872;BME280;52653;50.080;21.992;2023-05-14T00:23:59;99753.66;;;6.07;81.94
65872;BME280;52653;50.080;21.992;2023-05-14T00:26:45;99755.34;;;6.04;82.00
65872;BME280;52653;50.080;21.992;2023-05-14T00:29:17;99752.16;;;6.01;82.04
65872;BME280;52653;50.080;21.992;2023-05-14T00:31:50;99748.45;;;5.98;82.32
65872;BME280;52653;50.080;21.992;2023-05-14T00:34:26;99745.23;;;5.95;82.56
65872;BME280;52653;50.080;21.992;2023-05-14T00:37:19;99741.48;;;5.90;82.42
65872;BME280;52653;50.080;21.992;2023-05-14T00:40:02;99741.75;;;5.86;82.47
65872;BME280;52653;50.080;21.992;2023-05-14T00:42:41;99744.09;;;5.83;82.47
65872;BME280;52653;50.080;21.992;2023-05-14T00:45:24;99741.75;;;5.78;82.43
65872;BME280;52653;50.080;21.992;2023-05-14T00:47:59;99740.80;;;5.74;82.54
65872;BME280;52653;50.080;21.992;2023-05-14T00:50:34;99740.71;;;5.70;82.43
65872;BME280;52653;50.080;21.992;2023-05-14T00:53:12;99739.92;;;5.66;82.47
65872;BME280;52653;50.080;21.992;2023-05-14T00:55:56;99739.50;;;5.61;82.67
65872;BME280;52653;50.080;21.992;2023-05-14T00:58:30;99737.85;;;5.58;82.73
65872;BME280;52653;50.080;21.992;2023-05-14T01:01:16;99737.78;;;5.55;82.78
65872;BME280;52653;50.080;21.992;2023-05-14T01:03:51;99740.51;;;5.52;82.96
65872;BME280;52653;50.080;21.992;2023-05-14T01:06:53;99740.98;;;5.49;83.22
65872;BME280;52653;50.080;21.992;2023-05-14T01:09:46;99744.55;;;5.46;83.79
65872;BME280;52653;50.080;21.992;2023-05-14T01:12:49;99746.42;;;5.44;84.47
65872;BME280;52653;50.080;21.992;2023-05-14T01:15:36;99743.73;;;5.40;85.11
65872;BME280;52653;50.080;21.992;2023-05-14T01:18:15;99744.39;;;5.38;85.28
65872;BME280;52653;50.080;21.992;2023-05-14T01:20:54;99742.45;;;5.37;85.46
65872;BME280;52653;50.080;21.992;2023-05-14T01:23:30;99742.46;;;5.37;85.66
65872;BME280;52653;50.080;21.992;2023-05-14T01:26:15;99744.18;;;5.36;85.53
65872;BME280;52653;50.080;21.992;2023-05-14T01:29:03;99746.60;;;5.35;85.43
65872;BME280;52653;50.080;21.992;2023-05-14T01:31:43;99746.22;;;5.34;85.47
65872;BME280;52653;50.080;21.992;2023-05-14T01:34:23;99743.36;;;5.31;85.51
65872;BME280;52653;50.080;21.992;2023-05-14T01:37:07;99741.92;;;5.29;85.36
65872;BME280;52653;50.080;21.992;2023-05-14T01:39:55;99741.18;;;5.26;85.52
65872;BME280;52653;50.080;21.992;2023-05-14T01:42:36;99739.00;;;5.22;85.53
65872;BME280;52653;50.080;21.992;2023-05-14T01:45:30;99742.58;;;5.19;85.46
65872;BME280;52653;50.080;21.992;2023-05-14T01:48:23;99740.43;;;5.17;85.38
65872;BME280;52653;50.080;21.992;2023-05-14T01:50:56;99738.82;;;5.14;85.18
65872;BME280;52653;50.080;21.992;2023-05-14T01:53:39;99738.77;;;5.12;85.24
65872;BME280;52653;50.080;21.992;2023-05-14T01:56:15;99739.09;;;5.10;85.17
65872;BME280;52653;50.080;21.992;2023-05-14T01:59:08;99735.52;;;5.07;85.11
65872;BME280;52653;50.080;21.992;2023-05-14T02:02:02;99731.13;;;5.05;85.24
65872;BME280;52653;50.080;21.992;2023-05-14T02:04:55;99721.83;;;5.00;85.27
65872;BME280;52653;50.080;21.992;2023-05-14T02:07:49;99719.52;;;4.98;85.55
65872;BME280;52653;50.080;21.992;2023-05-14T02:10:42;99719.47;;;4.96;85.78
65872;BME280;52653;50.080;21.992;2023-05-14T02:13:36;99720.27;;;4.94;85.85
65872;BME280;52653;50.080;21.992;2023-05-14T02:16:20;99711.20;;;4.93;85.64
65872;BME280;52653;50.080;21.992;2023-05-14T02:19:12;99711.52;;;4.91;85.56
65872;BME280;52653;50.080;21.992;2023-05-14T02:22:05;99710.95;;;4.89;85.90
65872;BME280;52653;50.080;21.992;2023-05-14T02:24:49;99714.02;;;4.87;85.82
65872;BME280;52653;50.080;21.992;2023-05-14T02:27:42;99710.14;;;4.84;85.88
65872;BME280;52653;50.080;21.992;2023-05-14T02:30:37;99716.16;;;4.82;85.81
65872;BME280;52653;50.080;21.992;2023-05-14T02:33:30;99712.28;;;4.79;86.01
65872;BME280;52653;50.080;21.992;2023-05-14T02:36:22;99708.59;;;4.77;85.88
65872;BME280;52653;50.080;21.992;2023-05-14T02:39:07;99708.04;;;4.76;85.95
65872;BME280;52653;50.080;21.992;2023-05-14T02:42:00;99704.20;;;4.75;85.86
65872;BME280;52653;50.080;21.992;2023-05-14T02:44:53;99704.52;;;4.74;85.83
65872;BME280;52653;50.080;21.992;2023-05-14T02:47:47;99711.81;;;4.73;85.90
65872;BME280;52653;50.080;21.992;2023-05-14T02:50:40;99715.25;;;4.71;86.01
65872;BME280;52653;50.080;21.992;2023-05-14T02:53:34;99718.20;;;4.71;86.01
65872;BME280;52653;50.080;21.992;2023-05-14T02:56:27;99717.84;;;4.71;85.92
65872;BME280;52653;50.080;21.992;2023-05-14T02:59:21;99719.95;;;4.72;86.03
65872;BME280;52653;50.080;21.992;2023-05-14T03:02:12;99717.55;;;4.74;86.29
65872;BME280;52653;50.080;21.992;2023-05-14T03:05:06;99716.06;;;4.77;86.29
65872;BME280;52653;50.080;21.992;2023-05-14T03:07:59;99720.27;;;4.79;86.38
65872;BME280;52653;50.080;21.992;2023-05-14T03:10:52;99720.30;;;4.81;86.27
65872;BME280;52653;50.080;21.992;2023-05-14T03:13:35;99715.88;;;4.84;86.54
65872;BME280;52653;50.080;21.992;2023-05-14T03:16:30;99712.61;;;4.85;86.34
65872;BME280;52653;50.080;21.992;2023-05-14T03:19:16;99711.44;;;4.87;86.53
65872;BME280;52653;50.080;21.992;2023-05-14T03:22:11;99713.20;;;4.88;86.64
65872;BME280;52653;50.080;21.992;2023-05-14T03:25:04;99709.09;;;4.91;86.58
65872;BME280;52653;50.080;21.992;2023-05-14T03:27:57;99708.83;;;4.95;86.60
65872;BME280;52653;50.080;21.992;2023-05-14T03:30:50;99707.51;;;4.97;86.56
65872;BME280;52653;50.080;21.992;2023-05-14T03:33:43;99708.27;;;5.00;86.58
65872;BME280;52653;50.080;21.992;2023-05-14T03:36:35;99706.58;;;5.03;86.37
65872;BME280;52653;50.080;21.992;2023-05-14T03:39:30;99713.13;;;5.08;86.51
65872;BME280;52653;50.080;21.992;2023-05-14T03:42:22;99713.99;;;5.16;86.43
65872;BME280;52653;50.080;21.992;2023-05-14T03:45:16;99715.44;;;5.26;86.58
65872;BME280;52653;50.080;21.992;2023-05-14T03:48:09;99715.20;;;5.40;86.74
65872;BME280;52653;50.080;21.992;2023-05-14T03:51:02;99709.73;;;5.53;86.83
65872;BME280;52653;50.080;21.992;2023-05-14T03:53:55;99704.83;;;5.68;86.63
65872;BME280;52653;50.080;21.992;2023-05-14T03:56:49;99704.50;;;5.86;86.72
65872;BME280;52653;50.080;21.992;2023-05-14T03:59:41;99702.82;;;6.08;86.65
65872;BME280;52653;50.080;21.992;2023-05-14T04:02:33;99703.06;;;6.30;86.60
65872;BME280;52653;50.080;21.992;2023-05-14T04:05:25;99703.68;;;6.57;86.44
65872;BME280;52653;50.080;21.992;2023-05-14T04:08:18;99694.50;;;6.83;86.15
65872;BME280;52653;50.080;21.992;2023-05-14T04:11:10;99686.33;;;7.08;86.04
65872;BME280;52653;50.080;21.992;2023-05-14T04:14:03;99680.85;;;7.29;85.77
65872;BME280;52653;50.080;21.992;2023-05-14T04:16:56;99683.36;;;7.47;85.47
65872;BME280;52653;50.080;21.992;2023-05-14T04:19:50;99688.81;;;7.67;85.21
65872;BME280;52653;50.080;21.992;2023-05-14T04:22:44;99686.23;;;7.85;84.92
65872;BME280;52653;50.080;21.992;2023-05-14T04:25:38;99681.91;;;8.06;84.64
65872;BME280;52653;50.080;21.992;2023-05-14T04:31:25;99686.50;;;8.45;84.03
65872;BME280;52653;50.080;21.992;2023-05-14T04:34:18;99681.02;;;8.86;83.72
65872;BME280;52653;50.080;21.992;2023-05-14T04:37:02;99676.46;;;9.48;83.14
65872;BME280;52653;50.080;21.992;2023-05-14T04:39:55;99673.01;;;10.17;81.80
65872;BME280;52653;50.080;21.992;2023-05-14T04:42:50;99671.09;;;10.83;79.96
65872;BME280;52653;50.080;21.992;2023-05-14T04:45:43;99674.08;;;11.47;78.48
65872;BME280;52653;50.080;21.992;2023-05-14T04:48:24;99675.05;;;12.06;77.19
65872;BME280;52653;50.080;21.992;2023-05-14T04:51:16;99669.51;;;12.66;75.86
65872;BME280;52653;50.080;21.992;2023-05-14T04:54:01;99674.02;;;13.10;73.47
65872;BME280;52653;50.080;21.992;2023-05-14T04:56:44;99674.86;;;13.47;71.89
65872;BME280;52653;50.080;21.992;2023-05-14T04:59:23;99673.83;;;13.87;70.40
65872;BME280;52653;50.080;21.992;2023-05-14T05:02:17;99675.77;;;14.24;69.00
65872;BME280;52653;50.080;21.992;2023-05-14T05:05:12;99675.52;;;14.63;67.53
65872;BME280;52653;50.080;21.992;2023-05-14T05:07:45;99673.61;;;15.02;66.73
65872;BME280;52653;50.080;21.992;2023-05-14T05:10:27;99671.92;;;15.27;64.80
65872;BME280;52653;50.080;21.992;2023-05-14T05:13:20;99671.95;;;15.25;63.66
65872;BME280;52653;50.080;21.992;2023-05-14T05:16:13;99667.98;;;15.19;63.96
65872;BME280;52653;50.080;21.992;2023-05-14T05:19:06;99663.77;;;15.27;64.26
65872;BME280;52653;50.080;21.992;2023-05-14T05:21:59;99664.28;;;15.29;63.09
65872;BME280;52653;50.080;21.992;2023-05-14T05:24:52;99668.42;;;15.25;63.11
65872;BME280;52653;50.080;21.992;2023-05-14T05:27:28;99664.98;;;15.19;62.93
65872;BME280;52653;50.080;21.992;2023-05-14T05:30:05;99666.55;;;15.12;62.74
65872;BME280;52653;50.080;21.992;2023-05-14T05:32:44;99664.73;;;15.05;63.29
65872;BME280;52653;50.080;21.992;2023-05-14T05:35:20;99663.71;;;15.03;63.28
65872;BME280;52653;50.080;21.992;2023-05-14T05:38:13;99660.77;;;15.00;63.23
65872;BME280;52653;50.080;21.992;2023-05-14T05:41:08;99661.34;;;14.97;63.13
65872;BME280;52653;50.080;21.992;2023-05-14T05:44:03;99657.90;;;14.93;62.17
65872;BME280;52653;50.080;21.992;2023-05-14T05:46:56;99656.25;;;14.85;62.25
65872;BME280;52653;50.080;21.992;2023-05-14T05:49:52;99654.11;;;14.77;62.43
65872;BME280;52653;50.080;21.992;2023-05-14T05:52:45;99650.77;;;14.77;62.79
65872;BME280;52653;50.080;21.992;2023-05-14T05:55:34;99646.31;;;14.79;62.76
65872;BME280;52653;50.080;21.992;2023-05-14T05:58:27;99644.55;;;14.79;61.46
65872;BME280;52653;50.080;21.992;2023-05-14T06:01:22;99645.70;;;14.84;61.96
65872;BME280;52653;50.080;21.992;2023-05-14T06:04:15;99645.48;;;14.94;62.14
65872;BME280;52653;50.080;21.992;2023-05-14T06:07:07;99644.21;;;15.06;61.91
65872;BME280;52653;50.080;21.992;2023-05-14T06:10:01;99643.00;;;15.23;62.20
65872;BME280;52653;50.080;21.992;2023-05-14T06:12:33;99639.70;;;15.38;61.41
65872;BME280;52653;50.080;21.992;2023-05-14T06:15:12;99641.04;;;15.50;60.96
65872;BME280;52653;50.080;21.992;2023-05-14T06:17:56;99640.51;;;15.60;60.87
65872;BME280;52653;50.080;21.992;2023-05-14T06:20:40;99641.45;;;15.74;61.16
65872;BME280;52653;50.080;21.992;2023-05-14T06:23:21;99644.18;;;15.87;60.93
65872;BME280;52653;50.080;21.992;2023-05-14T06:26:14;99646.65;;;16.03;60.59
65872;BME280;52653;50.080;21.992;2023-05-14T06:29:07;99648.97;;;16.17;59.97
65872;BME280;52653;50.080;21.992;2023-05-14T06:31:49;99647.87;;;16.34;60.06
65872;BME280;52653;50.080;21.992;2023-05-14T06:34:42;99643.48;;;16.54;60.14
65872;BME280;52653;50.080;21.992;2023-05-14T06:37:35;99634.48;;;16.75;59.57
65872;BME280;52653;50.080;21.992;2023-05-14T06:40:13;99631.56;;;16.91;58.80
65872;BME280;52653;50.080;21.992;2023-05-14T06:43:08;99626.64;;;17.10;57.89
65872;BME280;52653;50.080;21.992;2023-05-14T06:46:01;99619.45;;;17.26;57.52
65872;BME280;52653;50.080;21.992;2023-05-14T06:48:35;99614.13;;;17.38;56.65
65872;BME280;52653;50.080;21.992;2023-05-14T06:51:18;99613.03;;;17.46;54.98
65872;BME280;52653;50.080;21.992;2023-05-14T06:54:12;99611.14;;;17.55;55.19
65872;BME280;52653;50.080;21.992;2023-05-14T06:57:05;99608.04;;;17.64;54.06
65872;BME280;52653;50.080;21.992;2023-05-14T06:59:48;99604.30;;;17.72;53.41
65872;BME280;52653;50.080;21.992;2023-05-14T07:02:35;99606.17;;;17.80;53.48
65872;BME280;52653;50.080;21.992;2023-05-14T07:05:18;99603.59;;;17.89;53.32
65872;BME280;52653;50.080;21.992;2023-05-14T07:08:10;99606.65;;;17.93;53.08
65872;BME280;52653;50.080;21.992;2023-05-14T07:10:57;99605.21;;;17.99;52.80
65872;BME280;52653;50.080;21.992;2023-05-14T07:13:30;99602.98;;;18.03;51.87
65872;BME280;52653;50.080;21.992;2023-05-14T07:16:08;99598.38;;;18.08;52.69
65872;BME280;52653;50.080;21.992;2023-05-14T07:19:01;99593.44;;;18.12;51.50
65872;BME280;52653;50.080;21.992;2023-05-14T07:21:53;99592.45;;;18.21;52.15
65872;BME280;52653;50.080;21.992;2023-05-14T07:24:45;99589.61;;;18.37;52.24
65872;BME280;52653;50.080;21.992;2023-05-14T07:27:32;99588.94;;;18.46;50.84
65872;BME280;52653;50.080;21.992;2023-05-14T07:30:26;99584.27;;;18.53;50.67
65872;BME280;52653;50.080;21.992;2023-05-14T07:33:19;99587.14;;;18.63;51.27
65872;BME280;52653;50.080;21.992;2023-05-14T07:35:53;99586.58;;;18.69;49.87
65872;BME280;52653;50.080;21.992;2023-05-14T07:38:46;99579.52;;;18.73;50.20
65872;BME280;52653;50.080;21.992;2023-05-14T07:41:41;99574.51;;;18.79;51.05
65872;BME280;52653;50.080;21.992;2023-05-14T07:44:35;99575.69;;;18.91;51.10
65872;BME280;52653;50.080;21.992;2023-05-14T07:47:28;99572.36;;;18.99;50.29
65872;BME280;52653;50.080;21.992;2023-05-14T07:50:19;99567.41;;;19.08;50.40
65872;BME280;52653;50.080;21.992;2023-05-14T07:53:13;99569.88;;;19.19;49.84
65872;BME280;52653;50.080;21.992;2023-05-14T07:56:07;99568.95;;;19.25;49.78
65872;BME280;52653;50.080;21.992;2023-05-14T07:58:44;99572.43;;;19.26;49.05
65872;BME280;52653;50.080;21.992;2023-05-14T08:01:17;99571.51;;;19.27;49.35
65872;BME280;52653;50.080;21.992;2023-05-14T08:04:00;99578.05;;;19.38;50.84
65872;BME280;52653;50.080;21.992;2023-05-14T08:06:51;99575.31;;;19.54;50.08
65872;BME280;52653;50.080;21.992;2023-05-14T08:09:38;99578.01;;;19.63;48.68
65872;BME280;52653;50.080;21.992;2023-05-14T08:12:31;99583.48;;;19.64;47.68
65872;BME280;52653;50.080;21.992;2023-05-14T08:15:23;99581.15;;;19.64;47.20
65872;BME280;52653;50.080;21.992;2023-05-14T08:18:18;99573.17;;;19.68;47.19
65872;BME280;52653;50.080;21.992;2023-05-14T08:21:10;99567.98;;;19.69;47.56
65872;BME280;52653;50.080;21.992;2023-05-14T08:24:03;99566.31;;;19.76;47.88
65872;BME280;52653;50.080;21.992;2023-05-14T08:26:59;99566.40;;;19.78;47.60
65872;BME280;52653;50.080;21.992;2023-05-14T08:29:39;99562.63;;;19.83;47.76
65872;BME280;52653;50.080;21.992;2023-05-14T08:32:26;99555.60;;;19.89;48.06
65872;BME280;52653;50.080;21.992;2023-05-14T08:35:12;99553.28;;;19.98;47.83
65872;BME280;52653;50.080;21.992;2023-05-14T08:37:56;99548.13;;;20.07;47.23
65872;BME280;52653;50.080;21.992;2023-05-14T08:40:44;99541.58;;;20.15;46.34
65872;BME280;52653;50.080;21.992;2023-05-14T08:43:28;99539.16;;;20.26;46.26
65872;BME280;52653;50.080;21.992;2023-05-14T08:46:13;99536.60;;;20.40;47.12
65872;BME280;52653;50.080;21.992;2023-05-14T08:49:27;99534.95;;;20.63;46.04
65872;BME280;52653;50.080;21.992;2023-05-14T08:52:22;99536.03;;;20.82;45.14
65872;BME280;52653;50.080;21.992;2023-05-14T08:55:17;99530.09;;;20.91;44.02
65872;BME280;52653;50.080;21.992;2023-05-14T08:58:10;99527.44;;;20.91;44.36
65872;BME280;52653;50.080;21.992;2023-05-14T09:00:45;99527.91;;;20.89;44.39
65872;BME280;52653;50.080;21.992;2023-05-14T09:03:19;99523.13;;;20.88;45.42
65872;BME280;52653;50.080;21.992;2023-05-14T09:06:06;99524.29;;;20.93;45.65
65872;BME280;52653;50.080;21.992;2023-05-14T09:08:39;99527.40;;;21.00;45.06
65872;BME280;52653;50.080;21.992;2023-05-14T09:11:32;99523.56;;;21.02;43.75
65872;BME280;52653;50.080;21.992;2023-05-14T09:14:08;99521.73;;;21.03;43.67
65872;BME280;52653;50.080;21.992;2023-05-14T09:17:01;99519.39;;;21.00;43.16
65872;BME280;52653;50.080;21.992;2023-05-14T09:19:34;99520.10;;;21.00;44.01
65872;BME280;52653;50.080;21.992;2023-05-14T09:22:30;99522.61;;;21.03;43.40
65872;BME280;52653;50.080;21.992;2023-05-14T09:25:26;99515.91;;;21.01;42.63
65872;BME280;52653;50.080;21.992;2023-05-14T09:28:23;99511.34;;;21.00;43.24
65872;BME280;52653;50.080;21.992;2023-05-14T09:31:18;99506.36;;;21.07;42.85
65872;BME280;52653;50.080;21.992;2023-05-14T09:34:11;99504.09;;;21.10;43.07
65872;BME280;52653;50.080;21.992;2023-05-14T09:37:18;99505.48;;;21.23;44.29
65872;BME280;52653;50.080;21.992;2023-05-14T09:40:11;99504.83;;;21.37;42.89
65872;BME280;52653;50.080;21.992;2023-05-14T09:43:06;99504.17;;;21.43;42.23
65872;BME280;52653;50.080;21.992;2023-05-14T09:46:00;99498.44;;;21.48;42.67
65872;BME280;52653;50.080;21.992;2023-05-14T09:48:52;99493.71;;;21.53;42.71
65872;BME280;52653;50.080;21.992;2023-05-14T09:51:48;99489.36;;;21.58;42.48
65872;BME280;52653;50.080;21.992;2023-05-14T09:54:41;99485.92;;;21.59;41.91
65872;BME280;52653;50.080;21.992;2023-05-14T09:57:30;99482.41;;;21.54;41.38
65872;BME280;52653;50.080;21.992;2023-05-14T10:00:24;99480.08;;;21.55;41.68
65872;BME280;52653;50.080;21.992;2023-05-14T10:03:11;99476.94;;;21.60;41.11
65872;BME280;52653;50.080;21.992;2023-05-14T10:05:47;99474.17;;;21.55;40.49
65872;BME280;52653;50.080;21.992;2023-05-14T10:08:26;99470.71;;;21.49;40.55
65872;BME280;52653;50.080;21.992;2023-05-14T10:11:03;99467.21;;;21.44;39.97
65872;BME280;52653;50.080;21.992;2023-05-14T10:13:51;99463.98;;;21.37;40.52
65872;BME280;52653;50.080;21.992;2023-05-14T10:16:48;99459.72;;;21.40;41.06
65872;BME280;52653;50.080;21.992;2023-05-14T10:19:24;99457.96;;;21.47;40.64
65872;BME280;52653;50.080;21.992;2023-05-14T10:22:03;99453.31;;;21.58;40.67
65872;BME280;52653;50.080;21.992;2023-05-14T10:24:37;99447.06;;;21.58;39.37
65872;BME280;52653;50.080;21.992;2023-05-14T10:27:30;99442.59;;;21.55;40.49
65872;BME280;52653;50.080;21.992;2023-05-14T10:30:11;99443.14;;;21.58;40.77
65872;BME280;52653;50.080;21.992;2023-05-14T10:32:44;99432.58;;;21.69;41.80
65872;BME280;52653;50.080;21.992;2023-05-14T10:35:56;99435.91;;;21.78;40.42
65872;BME280;52653;50.080;21.992;2023-05-14T10:38:55;99425.27;;;21.80;39.75
65872;BME280;52653;50.080;21.992;2023-05-14T10:41:49;99427.31;;;21.75;39.78
65872;BME280;52653;50.080;21.992;2023-05-14T10:44:47;99427.89;;;21.70;38.91
65872;BME280;52653;50.080;21.992;2023-05-14T10:47:20;99425.05;;;21.77;39.95
65872;BME280;52653;50.080;21.992;2023-05-14T10:49:54;99427.66;;;21.82;39.87
65872;BME280;52653;50.080;21.992;2023-05-14T10:52:31;99423.02;;;21.86;40.10
65872;BME280;52653;50.080;21.992;2023-05-14T10:55:25;99421.54;;;21.97;38.84
65872;BME280;52653;50.080;21.992;2023-05-14T10:58:19;99419.27;;;22.03;38.50
65872;BME280;52653;50.080;21.992;2023-05-14T11:01:12;99414.83;;;22.03;38.41
65872;BME280;52653;50.080;21.992;2023-05-14T11:03:59;99414.17;;;22.01;39.65
65872;BME280;52653;50.080;21.992;2023-05-14T11:06:53;99406.02;;;22.11;40.09
65872;BME280;52653;50.080;21.992;2023-05-14T11:09:30;99398.66;;;22.22;39.14
65872;BME280;52653;50.080;21.992;2023-05-14T11:12:23;99397.21;;;22.29;38.44
65872;BME280;52653;50.080;21.992;2023-05-14T11:15:13;99387.48;;;22.30;38.01
65872;BME280;52653;50.080;21.992;2023-05-14T11:18:07;99377.92;;;22.32;37.95
65872;BME280;52653;50.080;21.992;2023-05-14T11:20:40;99375.14;;;22.41;37.92
65872;BME280;52653;50.080;21.992;2023-05-14T11:23:22;99369.66;;;22.50;37.21
65872;BME280;52653;50.080;21.992;2023-05-14T11:26:17;99366.21;;;22.57;37.45
65872;BME280;52653;50.080;21.992;2023-05-14T11:28:52;99366.05;;;22.60;37.38
65872;BME280;52653;50.080;21.992;2023-05-14T11:31:44;99357.41;;;22.58;36.51
65872;BME280;52653;50.080;21.992;2023-05-14T11:34:42;99355.05;;;22.55;36.91
65872;BME280;52653;50.080;21.992;2023-05-14T11:37:37;99353.70;;;22.67;37.44
65872;BME280;52653;50.080;21.992;2023-05-14T11:40:30;99344.77;;;22.80;37.82
65872;BME280;52653;50.080;21.992;2023-05-14T11:43:24;99341.11;;;22.95;37.70
65872;BME280;52653;50.080;21.992;2023-05-14T11:46:19;99338.38;;;23.08;37.42
65872;BME280;52653;50.080;21.992;2023-05-14T11:49:12;99324.34;;;23.16;36.69
65872;BME280;52653;50.080;21.992;2023-05-14T11:51:59;99322.23;;;23.21;36.84
65872;BME280;52653;50.080;21.992;2023-05-14T11:54:54;99321.08;;;23.16;36.11
65872;BME280;52653;50.080;21.992;2023-05-14T11:57:46;99316.95;;;23.11;34.73
65872;BME280;52653;50.080;21.992;2023-05-14T12:00:39;99313.56;;;23.01;36.37
65872;BME280;52653;50.080;21.992;2023-05-14T12:03:32;99313.94;;;23.04;37.33
65872;BME280;52653;50.080;21.992;2023-05-14T12:06:30;99310.56;;;23.13;37.58
65872;BME280;52653;50.080;21.992;2023-05-14T12:09:24;99310.92;;;23.25;37.56
65872;BME280;52653;50.080;21.992;2023-05-14T12:12:19;99303.51;;;23.32;36.61
65872;BME280;52653;50.080;21.992;2023-05-14T12:15:15;99299.79;;;23.35;35.52
65872;BME280;52653;50.080;21.992;2023-05-14T12:18:10;99295.91;;;23.36;36.00
65872;BME280;52653;50.080;21.992;2023-05-14T12:21:14;99297.55;;;23.39;36.28
65872;BME280;52653;50.080;21.992;2023-05-14T12:23:57;99297.35;;;23.42;35.16
65872;BME280;52653;50.080;21.992;2023-05-14T12:26:51;99296.81;;;23.45;34.59
65872;BME280;52653;50.080;21.992;2023-05-14T12:29:38;99293.17;;;23.46;34.05
65872;BME280;52653;50.080;21.992;2023-05-14T12:32:14;99289.45;;;23.46;35.08
65872;BME280;52653;50.080;21.992;2023-05-14T12:34:50;99287.69;;;23.52;34.95
65872;BME280;52653;50.080;21.992;2023-05-14T12:37:43;99283.96;;;23.51;34.65
65872;BME280;52653;50.080;21.992;2023-05-14T12:40:35;99278.13;;;23.49;34.92
65872;BME280;52653;50.080;21.992;2023-05-14T12:43:28;99269.10;;;23.42;33.68
65872;BME280;52653;50.080;21.992;2023-05-14T12:46:22;99257.52;;;23.38;34.72
65872;BME280;52653;50.080;21.992;2023-05-14T12:49:05;99255.67;;;23.36;34.51
65872;BME280;52653;50.080;21.992;2023-05-14T12:51:58;99247.63;;;23.33;34.76
65872;BME280;52653;50.080;21.992;2023-05-14T12:55:11;99246.61;;;23.32;35.88
65872;BME280;52653;50.080;21.992;2023-05-14T12:57:44;99246.30;;;23.37;35.24
65872;BME280;52653;50.080;21.992;2023-05-14T13:00:21;99241.17;;;23.33;34.04
65872;BME280;52653;50.080;21.992;2023-05-14T13:03:05;99238.14;;;23.30;34.16
65872;BME280;52653;50.080;21.992;2023-05-14T13:05:57;99229.69;;;23.39;36.09
65872;BME280;52653;50.080;21.992;2023-05-14T13:08:50;99224.79;;;23.46;34.91
65872;BME280;52653;50.080;21.992;2023-05-14T13:11:23;99220.55;;;23.48;34.37
65872;BME280;52653;50.080;21.992;2023-05-14T13:14:11;99214.85;;;23.45;34.29
65872;BME280;52653;50.080;21.992;2023-05-14T13:16:43;99212.38;;;23.38;34.12
65872;BME280;52653;50.080;21.992;2023-05-14T13:19:28;99204.06;;;23.34;34.28
65872;BME280;52653;50.080;21.992;2023-05-14T13:22:01;99202.89;;;23.33;35.44
65872;BME280;52653;50.080;21.992;2023-05-14T13:24:39;99196.16;;;23.40;35.50
65872;BME280;52653;50.080;21.992;2023-05-14T13:27:32;99196.20;;;23.40;33.69
65872;BME280;52653;50.080;21.992;2023-05-14T13:30:26;99185.17;;;23.36;32.99
65872;BME280;52653;50.080;21.992;2023-05-14T13:33:08;99185.73;;;23.32;33.45
65872;BME280;52653;50.080;21.992;2023-05-14T13:35:47;99187.71;;;23.38;33.95
65872;BME280;52653;50.080;21.992;2023-05-14T13:38:41;99183.42;;;23.50;35.18
65872;BME280;52653;50.080;21.992;2023-05-14T13:41:27;99183.92;;;23.59;33.59
65872;BME280;52653;50.080;21.992;2023-05-14T13:44:02;99178.15;;;23.66;33.40
65872;BME280;52653;50.080;21.992;2023-05-14T13:46:42;99181.82;;;23.73;33.68
65872;BME280;52653;50.080;21.992;2023-05-14T13:49:34;99181.39;;;23.83;33.71
65872;BME280;52653;50.080;21.992;2023-05-14T13:52:28;99183.48;;;23.81;32.76
65872;BME280;52653;50.080;21.992;2023-05-14T13:55:10;99178.57;;;23.88;33.40
65872;BME280;52653;50.080;21.992;2023-05-14T13:57:46;99171.73;;;23.94;32.74
65872;BME280;52653;50.080;21.992;2023-05-14T14:00:39;99168.75;;;23.93;32.62
65872;BME280;52653;50.080;21.992;2023-05-14T14:03:33;99161.13;;;23.92;31.72
65872;BME280;52653;50.080;21.992;2023-05-14T14:06:19;99160.98;;;23.89;32.19
65872;BME280;52653;50.080;21.992;2023-05-14T14:09:12;99152.11;;;23.90;32.91
65872;BME280;52653;50.080;21.992;2023-05-14T14:12:05;99154.27;;;23.87;31.65
65872;BME280;52653;50.080;21.992;2023-05-14T14:14:49;99147.86;;;23.83;32.11
65872;BME280;52653;50.080;21.992;2023-05-14T14:17:43;99140.05;;;23.85;32.38
65872;BME280;52653;50.080;21.992;2023-05-14T14:20:36;99130.59;;;23.82;31.35
65872;BME280;52653;50.080;21.992;2023-05-14T14:23:19;99134.33;;;23.85;31.81
65872;BME280;52653;50.080;21.992;2023-05-14T14:25:51;99136.90;;;23.92;31.24
65872;BME280;52653;50.080;21.992;2023-05-14T14:28:38;99125.58;;;23.93;30.37
65872;BME280;52653;50.080;21.992;2023-05-14T14:31:31;99127.96;;;23.97;30.98
65872;BME280;52653;50.080;21.992;2023-05-14T14:34:25;99129.03;;;24.03;30.83
65872;BME280;52653;50.080;21.992;2023-05-14T14:37:18;99123.58;;;24.04;30.80
65872;BME280;52653;50.080;21.992;2023-05-14T14:40:14;99119.15;;;24.04;30.55
65872;BME280;52653;50.080;21.992;2023-05-14T14:43:07;99117.48;;;24.07;30.79